createdAt,value
2017-09-11T00:01:17.620Z,3.78
2017-09-11T00:03:46.070Z,5.62
2017-09-11T00:06:14.444Z,5.10
2017-09-11T00:08:42.863Z,4.30
2017-09-11T00:11:11.245Z,5.15
2017-09-11T00:13:39.625Z,5.43
2017-09-11T00:16:08.027Z,5.18
2017-09-11T00:18:36.393Z,4.53
2017-09-11T00:21:04.984Z,5.00
2017-09-11T00:23:33.363Z,4.57
2017-09-11T00:26:01.745Z,3.80
2017-09-11T00:28:30.130Z,3.20
2017-09-11T00:30:58.502Z,5.05
2017-09-11T00:33:26.974Z,4.50
2017-09-11T00:35:55.369Z,3.58
2017-09-11T00:38:23.743Z,4.00
2017-09-11T00:40:52.145Z,4.25
2017-09-11T00:43:20.520Z,4.85
2017-09-11T00:45:48.935Z,4.22
2017-09-11T00:48:17.344Z,6.00
2017-09-11T00:50:45.737Z,4.90
2017-09-11T00:53:14.202Z,5.03
2017-09-11T00:55:42.671Z,4.40
2017-09-11T00:58:11.129Z,4.47
2017-09-11T01:00:40.275Z,4.20
2017-09-11T01:03:08.657Z,4.45
2017-09-11T01:05:37.043Z,6.12
2017-09-11T01:08:05.433Z,4.60
2017-09-11T01:10:34.641Z,4.18
2017-09-11T01:13:03.049Z,5.12
2017-09-11T01:15:31.453Z,5.40
2017-09-11T01:17:59.875Z,4.47
2017-09-11T01:20:28.290Z,3.72
2017-09-11T01:22:56.851Z,4.65
2017-09-11T01:25:26.014Z,5.35
2017-09-11T01:27:54.417Z,4.20
2017-09-11T01:30:23.620Z,3.75
2017-09-11T01:32:52.763Z,4.65
2017-09-11T01:35:21.346Z,4.00
2017-09-11T01:37:49.717Z,3.70
2017-09-11T01:40:18.093Z,4.22
2017-09-11T01:42:46.534Z,4.40
2017-09-11T01:45:15.789Z,4.62
2017-09-11T01:47:44.301Z,4.43
2017-09-11T01:50:12.747Z,4.07
2017-09-11T01:52:41.141Z,4.12
2017-09-11T01:55:10.009Z,3.87
2017-09-11T01:57:38.378Z,4.37
2017-09-11T02:00:06.783Z,4.43
2017-09-11T02:02:35.268Z,3.58
2017-09-11T02:05:03.687Z,5.20
2017-09-11T02:07:32.857Z,3.30
2017-09-11T02:10:01.303Z,3.97
2017-09-11T02:12:29.681Z,5.10
2017-09-11T02:14:58.121Z,4.45
2017-09-11T02:17:27.319Z,3.30
2017-09-11T02:19:56.539Z,4.15
2017-09-11T02:22:26.199Z,3.90
2017-09-11T02:24:55.207Z,4.55
2017-09-11T02:27:24.529Z,4.75
2017-09-11T02:29:52.924Z,4.65
2017-09-11T02:32:27.669Z,4.55
2017-09-11T02:34:56.185Z,3.85
2017-09-11T02:37:25.401Z,3.90
2017-09-11T02:39:54.542Z,3.50
2017-09-11T02:42:22.941Z,3.85
2017-09-11T02:44:51.350Z,3.40
2017-09-11T02:47:20.500Z,3.05
2017-09-11T02:49:48.872Z,3.20
2017-09-11T02:52:17.293Z,2.97
2017-09-11T02:54:45.685Z,4.87
2017-09-11T02:57:15.072Z,4.10
2017-09-11T02:59:44.268Z,3.47
2017-09-11T03:02:12.657Z,3.70
2017-09-11T03:04:41.827Z,2.92
2017-09-11T03:07:12.324Z,3.53
2017-09-11T03:09:40.713Z,3.40
2017-09-11T03:12:09.779Z,3.25
2017-09-11T03:14:38.685Z,3.80
2017-09-11T03:17:07.669Z,4.05
2017-09-11T03:19:36.636Z,4.00
2017-09-11T03:22:06.718Z,4.20
2017-09-11T03:24:35.575Z,3.95
2017-09-11T03:27:04.374Z,4.00
2017-09-11T03:29:33.242Z,3.87
2017-09-11T03:32:02.075Z,3.60
2017-09-11T03:34:30.458Z,3.10
2017-09-11T03:36:58.857Z,4.30
2017-09-11T03:39:27.263Z,4.65
2017-09-11T03:41:55.697Z,2.90
2017-09-11T03:44:24.261Z,3.42
2017-09-11T03:46:52.634Z,3.72
2017-09-11T03:49:21.037Z,3.58
2017-09-11T03:51:49.457Z,6.05
2017-09-11T03:54:17.879Z,4.03
2017-09-11T03:56:46.266Z,3.10
2017-09-11T03:59:15.004Z,3.37
2017-09-11T04:01:44.126Z,3.55
2017-09-11T04:04:12.497Z,3.40
2017-09-11T04:06:41.085Z,3.50
2017-09-11T04:09:09.487Z,3.20
2017-09-11T04:11:38.634Z,3.15
2017-09-11T04:14:07.060Z,3.00
2017-09-11T04:16:35.430Z,3.03
2017-09-11T04:19:03.823Z,2.42
2017-09-11T04:21:32.517Z,3.78
2017-09-11T04:24:02.390Z,3.47
2017-09-11T04:26:30.770Z,3.05
2017-09-11T04:28:59.195Z,3.78
2017-09-11T04:31:27.578Z,4.28
2017-09-11T04:33:55.948Z,3.35
2017-09-11T04:36:24.345Z,3.55
2017-09-11T04:38:53.476Z,3.10
2017-09-11T04:41:21.852Z,2.70
2017-09-11T04:43:50.242Z,3.08
2017-09-11T04:46:19.570Z,5.43
2017-09-11T04:48:47.938Z,3.50
2017-09-11T04:51:16.705Z,3.50
2017-09-11T04:53:45.420Z,2.80
2017-09-11T04:56:14.822Z,6.00
2017-09-11T04:58:43.582Z,3.12
2017-09-11T05:01:12.584Z,2.87
2017-09-11T05:03:43.134Z,2.70
2017-09-11T05:06:11.802Z,2.60
2017-09-11T05:08:40.205Z,19.50
2017-09-11T05:11:08.948Z,15.15
2017-09-11T05:13:37.763Z,12.63
2017-09-11T05:16:06.648Z,5.10
2017-09-11T05:18:35.279Z,11.75
2017-09-11T05:21:03.710Z,9.20
2017-09-11T05:23:32.172Z,5.15
2017-09-11T05:26:01.217Z,7.05
2017-09-11T05:28:29.971Z,19.90
2017-09-11T05:30:58.757Z,9.70
2017-09-11T05:33:27.497Z,3.53
2017-09-11T05:35:56.571Z,3.15
2017-09-11T05:38:25.381Z,3.10
2017-09-11T05:40:54.141Z,10.15
2017-09-11T05:43:22.810Z,16.37
2017-09-11T05:45:52.824Z,6.43
2017-09-11T05:48:21.698Z,3.33
2017-09-11T05:50:51.982Z,2.72
2017-09-11T05:53:22.279Z,2.60
2017-09-11T05:55:51.786Z,2.40
2017-09-11T05:58:22.315Z,2.00
2017-09-11T06:00:52.061Z,2.10
2017-09-11T06:03:23.149Z,2.58
2017-09-11T06:05:51.523Z,2.33
2017-09-11T06:08:19.904Z,2.03
2017-09-11T06:10:48.315Z,2.33
2017-09-11T06:13:16.717Z,1.65
2017-09-11T06:15:45.110Z,1.65
2017-09-11T06:18:13.539Z,1.40
2017-09-11T06:20:41.927Z,1.33
2017-09-11T06:23:10.309Z,1.80
2017-09-11T06:25:38.710Z,1.70
2017-09-11T06:28:07.856Z,2.00
2017-09-11T06:30:36.259Z,1.10
2017-09-11T06:33:05.439Z,1.20
2017-09-11T06:35:33.828Z,1.60
2017-09-11T06:38:02.976Z,1.10
2017-09-11T06:40:31.412Z,1.58
2017-09-11T06:43:00.553Z,1.20
2017-09-11T06:45:28.983Z,1.58
2017-09-11T06:47:57.399Z,1.43
2017-09-11T06:50:25.777Z,1.37
2017-09-11T06:52:54.156Z,1.30
2017-09-11T06:55:22.618Z,1.27
2017-09-11T06:57:51.777Z,1.30
2017-09-11T07:00:20.181Z,1.33
2017-09-11T07:02:49.388Z,1.40
2017-09-11T07:05:17.777Z,1.23
2017-09-11T07:07:46.935Z,1.50
2017-09-11T07:10:15.356Z,1.10
2017-09-11T07:13:01.435Z,1.67
2017-09-11T07:15:30.631Z,1.20
2017-09-11T07:17:59.811Z,1.00
2017-09-11T07:20:28.191Z,1.70
2017-09-11T07:22:56.614Z,1.30
2017-09-11T07:25:25.008Z,1.80
2017-09-11T07:27:53.389Z,1.57
2017-09-11T07:30:21.850Z,1.73
2017-09-11T07:32:50.239Z,1.50
2017-09-11T07:35:18.642Z,1.57
2017-09-11T07:37:47.069Z,2.20
2017-09-11T07:40:16.210Z,1.50
2017-09-11T07:42:44.613Z,1.87
2017-09-11T07:45:13.093Z,1.57
2017-09-11T07:47:41.503Z,1.70
2017-09-11T07:50:10.649Z,1.27
2017-09-11T07:52:39.072Z,1.47
2017-09-11T07:55:08.214Z,1.40
2017-09-11T07:57:36.601Z,1.30
2017-09-11T08:00:05.074Z,2.07
2017-09-11T08:02:33.460Z,1.30
2017-09-11T08:05:01.838Z,1.87
2017-09-11T08:07:30.345Z,1.63
2017-09-11T08:09:58.758Z,1.60
2017-09-11T08:12:27.154Z,1.45
2017-09-11T08:14:55.566Z,1.52
2017-09-11T08:17:24.961Z,1.83
2017-09-11T08:19:53.367Z,1.87
2017-09-11T08:22:21.802Z,1.58
2017-09-11T08:24:50.183Z,1.20
2017-09-11T08:27:18.558Z,1.30
2017-09-11T08:29:46.984Z,1.50
2017-09-11T08:32:15.362Z,1.48
2017-09-11T08:34:43.749Z,1.65
2017-09-11T08:37:12.926Z,1.65
2017-09-11T08:39:41.313Z,1.90
2017-09-11T08:42:09.717Z,1.73
2017-09-11T08:44:38.899Z,1.80
2017-09-11T08:47:08.049Z,1.40
2017-09-11T08:49:36.531Z,1.67
2017-09-11T08:52:04.958Z,1.25
2017-09-11T08:54:34.106Z,1.55
2017-09-11T08:57:02.478Z,2.15
2017-09-11T08:59:30.917Z,1.48
2017-09-11T09:02:00.129Z,1.35
2017-09-11T09:04:28.514Z,2.17
2017-09-11T09:06:56.942Z,3.08
2017-09-11T09:09:25.338Z,2.25
2017-09-11T09:11:53.720Z,1.90
2017-09-11T09:14:22.158Z,1.95
2017-09-11T09:16:50.559Z,2.03
2017-09-11T09:19:18.950Z,2.35
2017-09-11T09:21:47.366Z,1.48
2017-09-11T09:24:15.762Z,2.08
2017-09-11T09:26:44.149Z,2.72
2017-09-11T09:29:12.551Z,2.00
2017-09-11T09:31:40.923Z,1.62
2017-09-11T09:34:09.338Z,1.67
2017-09-11T09:36:37.762Z,2.23
2017-09-11T09:39:06.164Z,2.17
2017-09-11T09:41:34.598Z,1.07
2017-09-11T09:44:03.049Z,0.90
2017-09-11T09:46:31.430Z,0.97
2017-09-11T09:48:59.799Z,1.40
2017-09-11T09:51:28.206Z,2.00
2017-09-11T09:53:57.347Z,1.87
2017-09-11T09:56:25.723Z,1.03
2017-09-11T09:58:54.154Z,1.17
2017-09-11T10:01:23.302Z,1.60
2017-09-11T10:03:51.682Z,1.40
2017-09-11T10:06:20.108Z,1.57
2017-09-11T10:08:48.490Z,1.30
2017-09-11T10:11:17.674Z,0.80
2017-09-11T10:13:46.087Z,1.00
2017-09-11T10:16:14.469Z,0.83
2017-09-11T10:18:42.890Z,0.73
2017-09-11T10:21:11.322Z,1.30
2017-09-11T10:23:39.703Z,0.90
2017-09-11T10:26:08.087Z,1.07
2017-09-11T10:28:36.535Z,1.30
2017-09-11T10:31:05.682Z,0.73
2017-09-11T10:33:34.062Z,0.93
2017-09-11T10:36:02.466Z,0.70
2017-09-11T10:38:30.873Z,0.97
2017-09-11T10:41:00.029Z,0.90
2017-09-11T10:43:28.526Z,0.93
2017-09-11T10:45:56.954Z,1.00
2017-09-11T10:48:25.375Z,0.80
2017-09-11T10:50:54.036Z,0.70
2017-09-11T10:53:22.427Z,0.93
2017-09-11T10:55:50.832Z,0.87
2017-09-11T10:58:19.287Z,0.93
2017-09-11T11:00:47.666Z,0.90
2017-09-11T11:03:16.047Z,0.90
2017-09-11T11:05:44.477Z,1.27
2017-09-11T11:08:12.855Z,0.97
2017-09-11T11:10:41.261Z,2.27
2017-09-11T11:13:09.945Z,1.30
2017-09-11T11:15:38.326Z,1.27
2017-09-11T11:18:06.708Z,1.40
2017-09-11T11:20:35.126Z,1.20
2017-09-11T11:23:03.537Z,1.00
2017-09-11T11:25:31.915Z,1.40
2017-09-11T11:28:00.370Z,0.80
2017-09-11T11:30:29.544Z,1.23
2017-09-11T11:32:57.967Z,1.37
2017-09-11T11:35:26.412Z,1.00
2017-09-11T11:37:55.597Z,1.27
2017-09-11T11:40:23.977Z,1.37
2017-09-11T11:42:52.403Z,1.10
2017-09-11T11:45:20.830Z,1.03
2017-09-11T11:47:49.246Z,0.80
2017-09-11T11:50:18.703Z,0.80
2017-09-11T11:52:47.096Z,0.83
2017-09-11T11:55:15.482Z,1.20
2017-09-11T11:57:43.893Z,1.13
2017-09-11T12:00:13.034Z,1.03
2017-09-11T12:02:41.489Z,0.97
2017-09-11T12:05:09.941Z,0.90
2017-09-11T12:07:38.321Z,1.50
2017-09-11T12:10:06.726Z,1.10
2017-09-11T12:12:35.159Z,1.20
2017-09-11T12:15:03.538Z,1.13
2017-09-11T12:17:31.970Z,0.80
2017-09-11T12:20:00.417Z,1.00
2017-09-11T12:22:28.817Z,0.87
2017-09-11T12:24:57.206Z,1.13
2017-09-11T12:27:25.631Z,1.00
2017-09-11T12:29:54.166Z,1.30
2017-09-11T12:32:22.610Z,0.70
2017-09-11T12:34:52.076Z,1.00
2017-09-11T12:37:20.458Z,1.10
2017-09-11T12:39:48.839Z,1.20
2017-09-11T12:42:17.254Z,1.30
2017-09-11T12:44:45.693Z,1.07
2017-09-11T12:47:14.891Z,1.23
2017-09-11T12:49:43.306Z,1.33
2017-09-11T12:52:12.491Z,1.35
2017-09-11T12:54:40.869Z,0.73
2017-09-11T12:57:09.293Z,0.83
2017-09-11T12:59:37.681Z,1.00
2017-09-11T13:02:06.069Z,0.50
2017-09-11T13:04:34.487Z,0.67
2017-09-11T13:07:03.634Z,0.70
2017-09-11T13:09:32.022Z,0.80
2017-09-11T13:12:00.444Z,0.73
2017-09-11T13:14:29.598Z,0.60
2017-09-11T13:16:58.033Z,1.27
2017-09-11T13:19:26.481Z,1.20
2017-09-11T13:21:54.889Z,0.90
2017-09-11T13:24:24.040Z,0.60
2017-09-11T13:26:52.480Z,0.90
2017-09-11T13:29:20.883Z,0.70
2017-09-11T13:31:49.266Z,1.00
2017-09-11T13:34:17.677Z,0.70
2017-09-11T13:36:46.059Z,1.10
2017-09-11T13:39:14.499Z,0.70
2017-09-11T13:41:42.987Z,0.93
2017-09-11T13:44:11.375Z,0.70
2017-09-11T13:46:39.773Z,1.10
2017-09-11T13:49:08.184Z,1.57
2017-09-11T13:51:36.605Z,0.73
2017-09-11T13:54:04.993Z,0.80
2017-09-11T13:56:33.438Z,1.20
2017-09-11T13:59:01.829Z,0.93
2017-09-11T14:01:30.207Z,1.00
2017-09-11T14:03:58.619Z,0.90
2017-09-11T14:06:27.002Z,0.70
2017-09-11T14:08:55.414Z,0.87
2017-09-11T14:11:23.818Z,0.97
2017-09-11T14:13:52.227Z,1.10
2017-09-11T14:16:20.690Z,0.60
2017-09-11T14:18:49.107Z,0.55
2017-09-11T14:21:18.274Z,0.83
2017-09-11T14:23:46.703Z,0.63
2017-09-11T14:26:15.950Z,1.03
2017-09-11T14:28:44.333Z,1.10
2017-09-11T14:31:12.718Z,0.80
2017-09-11T14:33:41.152Z,1.67
2017-09-11T14:36:09.566Z,1.10
2017-09-11T14:38:37.965Z,0.85
2017-09-11T14:41:06.436Z,0.68
2017-09-11T14:43:34.859Z,0.70
2017-09-11T14:46:03.269Z,0.90
2017-09-11T14:48:31.714Z,1.20
2017-09-11T14:51:00.840Z,0.75
2017-09-11T14:53:29.218Z,0.80
2017-09-11T14:55:57.649Z,1.10
2017-09-11T14:58:26.030Z,1.20
2017-09-11T15:00:55.212Z,1.30
2017-09-11T15:03:23.617Z,1.30
2017-09-11T15:05:53.702Z,1.00
2017-09-11T15:08:22.087Z,1.30
2017-09-11T15:10:50.536Z,0.82
2017-09-11T15:13:19.013Z,1.10
2017-09-11T15:15:47.453Z,1.00
2017-09-11T15:18:16.649Z,0.90
2017-09-11T15:20:45.795Z,1.08
2017-09-11T15:23:14.971Z,1.25
2017-09-11T15:25:43.375Z,0.73
2017-09-11T15:28:11.759Z,0.93
2017-09-11T15:30:40.128Z,0.85
2017-09-11T15:33:08.585Z,1.60
2017-09-11T15:35:37.044Z,1.15
2017-09-11T15:38:06.236Z,0.88
2017-09-11T15:40:35.439Z,1.30
2017-09-11T15:43:03.811Z,1.30
2017-09-11T15:45:32.987Z,1.35
2017-09-11T15:48:01.653Z,0.90
2017-09-11T15:50:30.055Z,1.12
2017-09-11T15:52:58.479Z,1.20
2017-09-11T15:55:26.913Z,1.20
2017-09-11T15:57:55.286Z,1.30
2017-09-11T16:00:23.662Z,1.52
2017-09-11T16:02:52.091Z,0.90
2017-09-11T16:05:20.481Z,1.20
2017-09-11T16:07:48.862Z,0.95
2017-09-11T16:10:17.274Z,1.48
2017-09-11T16:12:45.676Z,1.60
2017-09-11T16:15:14.817Z,1.00
2017-09-11T16:17:43.267Z,1.20
2017-09-11T16:20:12.425Z,1.33
2017-09-11T16:22:40.808Z,1.98
2017-09-11T16:25:09.225Z,1.25
2017-09-11T16:27:38.417Z,0.98
2017-09-11T16:30:07.616Z,1.37
2017-09-11T16:32:36.789Z,1.15
2017-09-11T16:35:05.241Z,1.02
2017-09-11T16:37:33.682Z,1.02
2017-09-11T16:40:02.166Z,0.90
2017-09-11T16:42:30.627Z,1.60
2017-09-11T16:44:59.070Z,0.88
2017-09-11T16:47:27.497Z,0.85
2017-09-11T16:49:56.664Z,0.70
2017-09-11T16:52:25.049Z,0.75
2017-09-11T16:54:53.479Z,0.88
2017-09-11T16:57:21.875Z,0.85
2017-09-11T16:59:50.421Z,1.10
2017-09-11T17:02:19.111Z,1.15
2017-09-11T17:04:47.563Z,1.02
2017-09-11T17:07:16.741Z,0.95
2017-09-11T17:09:45.182Z,1.05
2017-09-11T17:12:13.584Z,0.90
2017-09-11T17:14:42.002Z,1.05
2017-09-11T17:17:11.191Z,1.00
2017-09-11T17:19:39.635Z,1.30
2017-09-11T17:22:08.053Z,0.82
2017-09-11T17:24:36.496Z,0.95
2017-09-11T17:27:04.944Z,0.90
2017-09-11T17:29:33.426Z,0.80
2017-09-11T17:32:01.841Z,1.17
2017-09-11T17:34:30.447Z,0.70
2017-09-11T17:37:01.200Z,0.85
2017-09-11T17:39:34.993Z,1.10
2017-09-11T17:42:03.879Z,1.10
2017-09-11T17:44:35.474Z,1.50
2017-09-11T17:47:03.927Z,1.50
2017-09-11T17:49:33.105Z,1.85
2017-09-11T17:52:01.499Z,1.20
2017-09-11T17:54:31.041Z,1.33
2017-09-11T17:57:00.668Z,1.50
2017-09-11T17:59:29.126Z,1.20
2017-09-11T18:01:57.556Z,1.83
2017-09-11T18:04:26.007Z,1.42
2017-09-11T18:06:54.387Z,1.35
2017-09-11T18:09:22.970Z,1.37
2017-09-11T18:11:51.422Z,1.60
2017-09-11T18:14:19.863Z,1.52
2017-09-11T18:16:48.349Z,1.58
2017-09-11T18:19:17.535Z,1.60
2017-09-11T18:21:46.250Z,1.40
2017-09-11T18:24:15.521Z,1.10
2017-09-11T18:26:44.132Z,1.50
2017-09-11T18:29:12.947Z,1.40
2017-09-11T18:31:41.837Z,1.35
2017-09-11T18:34:10.670Z,1.55
2017-09-11T18:36:40.284Z,1.23
2017-09-11T18:39:09.134Z,1.50
2017-09-11T18:41:37.909Z,1.95
2017-09-11T18:44:06.377Z,2.50
2017-09-11T18:46:34.875Z,1.10
2017-09-11T18:49:03.506Z,1.50
2017-09-11T18:51:32.768Z,1.50
2017-09-11T18:54:01.729Z,1.52
2017-09-11T18:56:30.659Z,1.42
2017-09-11T18:58:59.504Z,1.45
2017-09-11T19:01:28.257Z,2.03
2017-09-11T19:03:56.702Z,1.80
2017-09-11T19:06:25.286Z,2.25
2017-09-11T19:08:53.846Z,1.60
2017-09-11T19:11:22.366Z,1.17
2017-09-11T19:13:50.983Z,1.65
2017-09-11T19:16:19.798Z,2.00
2017-09-11T19:18:49.082Z,1.90
2017-09-11T19:21:17.717Z,1.58
2017-09-11T19:23:47.717Z,1.50
2017-09-11T19:26:16.290Z,1.20
2017-09-11T19:28:44.731Z,1.83
2017-09-11T19:31:13.993Z,1.65
2017-09-11T19:33:42.814Z,2.25
2017-09-11T19:36:11.445Z,1.50
2017-09-11T19:38:39.863Z,1.50
2017-09-11T19:41:08.334Z,2.00
2017-09-11T19:43:36.786Z,1.90
2017-09-11T19:46:05.299Z,1.40
2017-09-11T19:48:33.853Z,1.40
2017-09-11T19:51:02.258Z,1.85
2017-09-11T19:53:30.683Z,1.60
2017-09-11T19:56:00.144Z,1.55
2017-09-11T19:58:28.681Z,1.25
2017-09-11T20:00:57.310Z,1.70
2017-09-11T20:03:36.399Z,2.03
2017-09-11T20:06:05.542Z,1.52
2017-09-11T20:08:35.039Z,1.70
2017-09-11T20:11:03.650Z,1.48
2017-09-11T20:13:32.899Z,1.62
2017-09-11T20:16:01.390Z,2.15
2017-09-11T20:18:31.317Z,2.10
2017-09-11T20:21:00.154Z,2.53
2017-09-11T20:23:28.682Z,2.00
2017-09-11T20:25:57.098Z,2.60
2017-09-11T20:28:48.484Z,1.80
2017-09-11T20:31:19.286Z,1.40
2017-09-11T20:33:47.861Z,1.70
2017-09-11T20:36:16.265Z,1.67
2017-09-11T20:38:44.742Z,1.65
2017-09-11T20:41:13.304Z,2.12
2017-09-11T20:43:41.751Z,2.42
2017-09-11T20:46:10.243Z,2.83
2017-09-11T20:48:39.478Z,1.85
2017-09-11T20:51:08.167Z,1.33
2017-09-11T20:54:11.299Z,1.37
2017-09-11T20:56:39.869Z,1.67
2017-09-11T20:59:08.432Z,1.75
2017-09-11T21:01:37.670Z,1.60
2017-09-11T21:04:06.147Z,1.67
2017-09-11T21:06:34.550Z,1.30
2017-09-11T21:09:03.086Z,1.50
2017-09-11T21:11:31.491Z,2.37
2017-09-11T21:13:59.967Z,2.15
2017-09-11T21:16:29.211Z,2.55
2017-09-11T21:18:57.963Z,2.22
2017-09-11T21:21:27.568Z,1.62
2017-09-11T21:23:55.993Z,2.03
2017-09-11T21:26:24.377Z,2.08
2017-09-11T21:28:52.804Z,1.87
2017-09-11T21:31:22.143Z,1.77
2017-09-11T21:33:50.525Z,1.60
2017-09-11T21:36:19.061Z,2.35
2017-09-11T21:38:47.500Z,2.17
2017-09-11T21:41:15.911Z,1.80
2017-09-11T21:43:44.300Z,1.83
2017-09-11T21:46:13.896Z,1.75
2017-09-11T21:48:42.350Z,1.75
2017-09-11T21:51:11.733Z,2.20
2017-09-11T21:53:40.221Z,1.90
2017-09-11T21:56:08.996Z,1.90
2017-09-11T21:58:37.399Z,2.05
2017-09-11T22:01:05.908Z,2.17
2017-09-11T22:03:34.320Z,2.03
2017-09-11T22:06:04.252Z,2.35
2017-09-11T22:08:32.959Z,1.55
2017-09-11T22:11:02.264Z,1.50
2017-09-11T22:13:33.066Z,1.50
2017-09-11T22:16:04.269Z,1.50
2017-09-11T22:18:32.754Z,1.45
2017-09-11T22:21:01.388Z,1.62
2017-09-11T22:23:29.903Z,2.25
2017-09-11T22:25:58.715Z,2.15
2017-09-11T22:28:27.130Z,2.53
2017-09-11T22:30:55.592Z,2.20
2017-09-11T22:33:24.741Z,1.52
2017-09-11T22:35:53.121Z,1.98
2017-09-11T22:38:22.079Z,2.15
2017-09-11T22:40:50.467Z,2.12
2017-09-11T22:43:19.310Z,1.60
2017-09-11T22:45:48.479Z,1.90
2017-09-11T22:48:17.322Z,2.08
2017-09-11T22:50:45.721Z,2.25
2017-09-11T22:53:14.516Z,2.03
2017-09-11T22:55:42.897Z,1.70
2017-09-11T22:58:11.276Z,2.00
2017-09-11T23:00:39.690Z,2.25
2017-09-11T23:03:08.239Z,2.97
2017-09-11T23:05:36.658Z,3.45
2017-09-11T23:08:05.065Z,2.22
2017-09-11T23:10:33.832Z,2.42
2017-09-11T23:13:02.206Z,2.20
2017-09-11T23:15:31.844Z,2.70
2017-09-11T23:18:00.398Z,1.65
2017-09-11T23:20:28.817Z,2.70
2017-09-11T23:22:57.681Z,2.25
2017-09-11T23:25:26.829Z,2.30
2017-09-11T23:27:55.253Z,2.58
2017-09-11T23:30:24.434Z,2.10
2017-09-11T23:32:52.853Z,2.45
2017-09-11T23:35:21.238Z,1.85
2017-09-11T23:37:49.664Z,1.80
2017-09-11T23:40:18.040Z,1.70
2017-09-11T23:42:46.415Z,2.70
2017-09-11T23:45:14.826Z,2.08
2017-09-11T23:47:43.223Z,2.00
2017-09-11T23:50:11.608Z,2.55
2017-09-11T23:52:40.032Z,2.00
2017-09-11T23:55:08.411Z,2.12
